Time;durP1;ratioP1;P1;durP2;ratioP2;P2;SDS_P1;SDS_P2;PMS_P1;PMS_P2;Temp;Humidity;BMP_temperature;BMP_pressure;BME280_temperature;BME280_humidity;BME280_pressure;Samples;Min_cycle;Max_cycle;Signal;HPM_P1;HPM_P2
2022/11/13 00:00:34;;;;;;;4.83;3.40;;;;;;;;;;5062034;27;87845;-60
2022/11/13 00:03:02;;;;;;;9.57;3.70;;;;;;;;;;5066867;27;89169;-60
2022/11/13 00:05:30;;;;;;;6.20;3.33;;;;;;;;;;5062751;27;86916;-60
2022/11/13 00:07:59;;;;;;;3.50;2.73;;;;;;;;;;5052854;27;89043;-60
2022/11/13 00:10:28;;;;;;;8.93;3.93;;;;;;;;;;5064330;27;87431;-60
2022/11/13 00:12:57;;;;;;;8.10;3.70;;;;;;;;;;5064764;27;87045;-60
2022/11/13 00:15:25;;;;;;;7.40;3.87;;;;;;;;;;5063930;27;87091;-60
2022/11/13 00:17:53;;;;;;;9.70;3.53;;;;;;;;;;5063685;27;89235;-60
2022/11/13 00:20:22;;;;;;;7.33;3.33;;;;;;;;;;5064462;27;88889;-60
2022/11/13 00:22:50;;;;;;;7.63;3.97;;;;;;;;;;5063964;27;87009;-60
2022/11/13 00:25:18;;;;;;;6.77;3.80;;;;;;;;;;5064271;27;86987;-60
2022/11/13 00:27:48;;;;;;;8.10;3.00;;;;;;;;;;5063083;27;90130;-60
2022/11/13 00:30:16;;;;;;;5.47;4.10;;;;;;;;;;5063708;27;91584;-60
2022/11/13 00:32:46;;;;;;;4.20;2.60;;;;;;;;;;5064269;27;87002;-60
2022/11/13 00:35:15;;;;;;;6.20;3.30;;;;;;;;;;5063804;27;86987;-60
2022/11/13 00:37:43;;;;;;;3.83;3.03;;;;;;;;;;5062550;27;88977;-60
2022/11/13 00:40:12;;;;;;;6.17;4.10;;;;;;;;;;5060971;27;88711;-59
2022/11/13 00:42:40;;;;;;;6.00;3.80;;;;;;;;;;5061391;27;87012;-60
2022/11/13 00:45:10;;;;;;;4.77;3.20;;;;;;;;;;5062960;27;86195;-60
2022/11/13 00:47:38;;;;;;;4.07;2.93;;;;;;;;;;5062242;27;88930;-60
2022/11/13 00:50:07;;;;;;;6.00;3.43;;;;;;;;;;5062418;27;88769;-59
2022/11/13 00:52:35;;;;;;;7.87;3.77;;;;;;;;;;5059850;27;88075;-60
2022/11/13 00:55:03;;;;;;;6.27;3.03;;;;;;;;;;5063686;27;86960;-60
2022/11/13 00:57:32;;;;;;;3.30;2.93;;;;;;;;;;5063654;27;88068;-60
2022/11/13 01:00:00;;;;;;;5.93;3.50;;;;;;;;;;5063845;27;88797;-60
2022/11/13 01:02:30;;;;;;;4.50;3.40;;;;;;;;;;5061869;27;87165;-60
2022/11/13 01:04:58;;;;;;;4.57;2.47;;;;;;;;;;5047012;27;87544;-60
2022/11/13 01:07:26;;;;;;;4.37;3.00;;;;;;;;;;5063366;27;86999;-60
2022/11/13 01:09:55;;;;;;;6.77;3.03;;;;;;;;;;5063508;27;88514;-60
2022/11/13 01:12:23;;;;;;;3.03;2.70;;;;;;;;;;5063930;27;87138;-60
2022/11/13 01:14:51;;;;;;;4.97;2.70;;;;;;;;;;5063318;27;86972;-60
2022/11/13 01:17:19;;;;;;;5.27;2.80;;;;;;;;;;5062308;27;88961;-60
2022/11/13 01:19:49;;;;;;;5.00;2.63;;;;;;;;;;5062305;27;88774;-60
2022/11/13 01:22:17;;;;;;;5.20;3.10;;;;;;;;;;5062784;27;87145;-60
2022/11/13 01:24:46;;;;;;;6.03;2.77;;;;;;;;;;5063173;27;86929;-60
2022/11/13 01:27:14;;;;;;;2.80;2.33;;;;;;;;;;5062715;27;89076;-60
2022/11/13 01:29:43;;;;;;;4.67;2.77;;;;;;;;;;5063272;27;90561;-60
2022/11/13 01:32:11;;;;;;;4.53;2.77;;;;;;;;;;5063547;27;87055;-60
2022/11/13 01:34:39;;;;;;;3.83;2.50;;;;;;;;;;5062814;27;86310;-65
2022/11/13 01:37:09;;;;;;;3.87;3.13;;;;;;;;;;5062179;27;88919;-60
2022/11/13 01:39:37;;;;;;;4.17;2.40;;;;;;;;;;5062049;27;87676;-59
2022/11/13 01:42:05;;;;;;;5.03;3.20;;;;;;;;;;5062673;27;88166;-60
2022/11/13 01:44:47;;;;;;;2.40;2.20;;;;;;;;;;5056259;27;87085;-59
2022/11/13 01:47:15;;;;;;;4.87;2.17;;;;;;;;;;5060269;27;88926;-60
2022/11/13 01:49:44;;;;;;;3.57;2.40;;;;;;;;;;5061807;27;87549;-60
2022/11/13 01:52:14;;;;;;;5.07;2.53;;;;;;;;;;5062884;27;87039;-60
2022/11/13 01:54:43;;;;;;;5.30;2.40;;;;;;;;;;5062937;27;87039;-60
2022/11/13 01:57:11;;;;;;;4.70;2.73;;;;;;;;;;5062761;27;87704;-60
2022/11/13 01:59:40;;;;;;;3.53;2.47;;;;;;;;;;5062529;27;88824;-60
2022/11/13 02:02:08;;;;;;;3.23;2.60;;;;;;;;;;5063455;27;86900;-60
2022/11/13 02:04:37;;;;;;;4.23;2.53;;;;;;;;;;5062200;27;86939;-60
2022/11/13 02:07:06;;;;;;;3.90;2.20;;;;;;;;;;5061362;27;90049;-60
2022/11/13 02:09:36;;;;;;;5.93;3.03;;;;;;;;;;5062281;27;88764;-60
2022/11/13 02:12:05;;;;;;;4.87;2.60;;;;;;;;;;5062349;27;86888;-60
2022/11/13 02:14:33;;;;;;;3.80;2.80;;;;;;;;;;5064138;27;87235;-60
2022/11/13 02:17:02;;;;;;;4.83;3.00;;;;;;;;;;5057459;27;89213;-60
2022/11/13 02:19:31;;;;;;;4.23;2.87;;;;;;;;;;5062690;27;87632;-60
2022/11/13 02:22:00;;;;;;;3.90;2.67;;;;;;;;;;5062404;27;86926;-60
2022/11/13 02:24:30;;;;;;;5.00;2.70;;;;;;;;;;5062227;27;86086;-59
2022/11/13 02:27:01;;;;;;;3.30;2.80;;;;;;;;;;5062697;27;89059;-60
2022/11/13 02:29:29;;;;;;;2.90;2.30;;;;;;;;;;5060165;27;88258;-59
2022/11/13 02:31:57;;;;;;;4.23;2.33;;;;;;;;;;5062095;27;87910;-60
2022/11/13 02:34:26;;;;;;;4.00;2.33;;;;;;;;;;5061934;27;87120;-60
2022/11/13 02:36:54;;;;;;;3.70;2.50;;;;;;;;;;5061645;27;89168;-60
2022/11/13 02:39:22;;;;;;;3.57;2.23;;;;;;;;;;5060481;27;88952;-60
2022/11/13 02:41:52;;;;;;;4.27;2.43;;;;;;;;;;5061477;27;87073;-60
2022/11/13 02:44:20;;;;;;;4.10;2.50;;;;;;;;;;5061483;27;86999;-60
2022/11/13 02:46:48;;;;;;;3.97;2.60;;;;;;;;;;5061838;27;89049;-60
2022/11/13 02:49:17;;;;;;;5.03;2.40;;;;;;;;;;5060000;27;89592;-59
2022/11/13 02:51:45;;;;;;;3.03;2.63;;;;;;;;;;5054957;27;86980;-60
2022/11/13 02:54:13;;;;;;;7.43;2.90;;;;;;;;;;5058935;27;87242;-59
2022/11/13 02:56:44;;;;;;;3.73;2.60;;;;;;;;;;5061507;27;88003;-59
2022/11/13 02:59:14;;;;;;;4.03;2.40;;;;;;;;;;5061824;27;89754;-60
2022/11/13 03:01:42;;;;;;;2.90;2.40;;;;;;;;;;5061182;27;87090;-60
2022/11/13 03:04:11;;;;;;;6.27;3.07;;;;;;;;;;5061795;27;86925;-59
2022/11/13 03:06:39;;;;;;;4.30;2.10;;;;;;;;;;5060956;27;89161;-59
2022/11/13 03:09:07;;;;;;;3.87;2.20;;;;;;;;;;5061667;27;90793;-60
2022/11/13 03:11:36;;;;;;;4.73;2.83;;;;;;;;;;5061969;27;86955;-59
2022/11/13 03:14:04;;;;;;;2.73;2.33;;;;;;;;;;5061975;27;86311;-59
2022/11/13 03:16:33;;;;;;;6.20;2.70;;;;;;;;;;5061702;27;88987;-60
2022/11/13 03:19:02;;;;;;;3.57;2.60;;;;;;;;;;5061054;27;88847;-59
2022/11/13 03:21:31;;;;;;;2.97;2.20;;;;;;;;;;5061117;27;88018;-60
2022/11/13 03:23:59;;;;;;;3.30;2.33;;;;;;;;;;5061242;27;87025;-60
2022/11/13 03:26:28;;;;;;;4.00;2.23;;;;;;;;;;5064819;27;89198;-60
2022/11/13 03:28:56;;;;;;;4.53;2.50;;;;;;;;;;5064182;27;88905;-60
2022/11/13 03:31:24;;;;;;;2.70;2.03;;;;;;;;;;5064961;27;86883;-60
2022/11/13 03:33:54;;;;;;;5.07;2.70;;;;;;;;;;5065405;27;86919;-60
2022/11/13 03:36:22;;;;;;;3.73;2.20;;;;;;;;;;5061299;27;89143;-60
2022/11/13 03:38:51;;;;;;;4.17;2.50;;;;;;;;;;5065312;27;87702;-60
2022/11/13 03:41:19;;;;;;;3.40;2.20;;;;;;;;;;5064224;27;87088;-59
2022/11/13 03:43:47;;;;;;;2.00;1.80;;;;;;;;;;5064998;27;87108;-59
2022/11/13 03:46:16;;;;;;;3.67;2.00;;;;;;;;;;5064881;27;88832;-59
2022/11/13 03:48:44;;;;;;;5.60;2.70;;;;;;;;;;5050810;27;89910;-60
2022/11/13 03:51:13;;;;;;;3.80;2.17;;;;;;;;;;5079426;27;86970;-61
2022/11/13 03:53:42;;;;;;;3.57;2.30;;;;;;;;;;5084589;27;87005;-60
2022/11/13 03:56:10;;;;;;;3.30;2.10;;;;;;;;;;5067953;27;88614;-60
2022/11/13 03:58:38;;;;;;;3.33;2.17;;;;;;;;;;5068748;27;89131;-60
2022/11/13 04:01:07;;;;;;;2.37;2.03;;;;;;;;;;5053264;27;87189;-60
2022/11/13 04:03:36;;;;;;;2.60;2.00;;;;;;;;;;5061207;27;86354;-60
2022/11/13 04:06:04;;;;;;;3.60;2.60;;;;;;;;;;5076189;27;88482;-60
2022/11/13 04:08:34;;;;;;;4.10;2.00;;;;;;;;;;5064746;27;89042;-60
2022/11/13 04:11:06;;;;;;;2.63;2.20;;;;;;;;;;5073894;27;88095;-60
2022/11/13 04:13:34;;;;;;;2.67;2.03;;;;;;;;;;5085367;27;87048;-60
2022/11/13 04:16:02;;;;;;;3.10;1.57;;;;;;;;;;5084664;27;89144;-60
2022/11/13 04:18:31;;;;;;;2.40;1.90;;;;;;;;;;5084539;27;88603;-60
2022/11/13 04:20:59;;;;;;;3.37;1.77;;;;;;;;;;5084869;27;86901;-60
2022/11/13 04:23:28;;;;;;;2.27;2.03;;;;;;;;;;5066534;27;86908;-60
2022/11/13 04:25:57;;;;;;;3.03;1.90;;;;;;;;;;5064954;27;88552;-60
2022/11/13 04:28:26;;;;;;;3.70;1.73;;;;;;;;;;5064931;27;89308;-60
2022/11/13 04:30:55;;;;;;;3.60;2.00;;;;;;;;;;5064139;27;86847;-60
2022/11/13 04:33:23;;;;;;;2.07;1.60;;;;;;;;;;5064798;27;87084;-60
2022/11/13 04:35:51;;;;;;;4.10;1.97;;;;;;;;;;5062373;27;90870;-60
2022/11/13 04:38:19;;;;;;;3.57;2.00;;;;;;;;;;5067264;27;88676;-60
2022/11/13 04:40:49;;;;;;;3.10;1.77;;;;;;;;;;5078895;27;88331;-60
2022/11/13 04:43:18;;;;;;;2.13;1.77;;;;;;;;;;5084673;27;86984;-60
2022/11/13 04:45:46;;;;;;;4.70;2.40;;;;;;;;;;5059626;27;88135;-60
2022/11/13 04:48:15;;;;;;;3.97;1.70;;;;;;;;;;5063570;27;88697;-61
2022/11/13 04:50:43;;;;;;;2.57;2.23;;;;;;;;;;5071335;27;87053;-60
2022/11/13 04:53:11;;;;;;;4.60;2.10;;;;;;;;;;5064552;27;86226;-61
2022/11/13 04:55:40;;;;;;;2.00;1.63;;;;;;;;;;5071492;27;87894;-60
2022/11/13 04:58:08;;;;;;;3.87;2.20;;;;;;;;;;5063363;27;89223;-60
2022/11/13 05:00:38;;;;;;;2.77;1.90;;;;;;;;;;5066303;27;88132;-60
2022/11/13 05:03:06;;;;;;;1.93;1.63;;;;;;;;;;5063892;27;86928;-60
2022/11/13 05:05:34;;;;;;;2.37;1.63;;;;;;;;;;5063226;27;89196;-60
2022/11/13 05:08:03;;;;;;;1.97;1.50;;;;;;;;;;5063739;27;88891;-60
2022/11/13 05:10:31;;;;;;;2.03;1.80;;;;;;;;;;5062588;27;88144;-60
2022/11/13 05:12:59;;;;;;;2.97;2.50;;;;;;;;;;5062932;27;87227;-60
2022/11/13 05:15:27;;;;;;;3.13;2.07;;;;;;;;;;5067547;27;87715;-60
2022/11/13 05:17:57;;;;;;;3.17;2.10;;;;;;;;;;5063930;27;88884;-60
2022/11/13 05:20:25;;;;;;;2.80;1.50;;;;;;;;;;5071401;27;86974;-60
2022/11/13 05:22:54;;;;;;;3.30;2.00;;;;;;;;;;5063754;27;87077;-60
2022/11/13 05:25:22;;;;;;;3.47;2.20;;;;;;;;;;5069982;27;90187;-60
2022/11/13 05:27:50;;;;;;;1.57;1.30;;;;;;;;;;5062257;27;88837;-60
2022/11/13 05:30:18;;;;;;;1.67;1.37;;;;;;;;;;5063610;27;87092;-60
2022/11/13 05:32:47;;;;;;;2.13;1.87;;;;;;;;;;5062472;27;87334;-60
2022/11/13 05:35:17;;;;;;;4.30;1.60;;;;;;;;;;5063142;27;87934;-60
2022/11/13 05:37:45;;;;;;;3.07;1.67;;;;;;;;;;5062916;27;88568;-60
2022/11/13 05:40:13;;;;;;;3.03;1.50;;;;;;;;;;5062886;27;87918;-60
2022/11/13 05:42:41;;;;;;;2.87;1.57;;;;;;;;;;5074081;27;87865;-60
2022/11/13 05:45:10;;;;;;;3.50;1.70;;;;;;;;;;5061517;27;89148;-60
2022/11/13 05:47:39;;;;;;;2.17;1.63;;;;;;;;;;5057468;27;88712;-60
2022/11/13 05:50:07;;;;;;;1.60;1.30;;;;;;;;;;5073691;27;88182;-60
2022/11/13 05:52:37;;;;;;;1.90;1.30;;;;;;;;;;5065263;27;87731;-61
2022/11/13 05:55:06;;;;;;;2.60;1.83;;;;;;;;;;5062685;27;89090;-60
2022/11/13 05:57:34;;;;;;;5.13;2.10;;;;;;;;;;5063791;27;88684;-60
2022/11/13 06:00:02;;;;;;;2.47;1.70;;;;;;;;;;5065984;27;86967;-60
2022/11/13 06:02:31;;;;;;;1.60;1.50;;;;;;;;;;5071893;27;87088;-61
2022/11/13 06:04:59;;;;;;;3.43;1.63;;;;;;;;;;5074628;27;89210;-60
2022/11/13 06:07:27;;;;;;;1.97;1.60;;;;;;;;;;5068496;27;87791;-60
2022/11/13 06:09:57;;;;;;;3.07;1.57;;;;;;;;;;5062533;27;87078;-60
2022/11/13 06:12:25;;;;;;;3.83;1.90;;;;;;;;;;5063369;27;87102;-60
2022/11/13 06:14:54;;;;;;;3.70;1.60;;;;;;;;;;5071507;27;90075;-60
2022/11/13 06:17:22;;;;;;;2.23;1.80;;;;;;;;;;5061431;27;89745;-60
2022/11/13 06:19:50;;;;;;;1.20;1.10;;;;;;;;;;5080809;27;87064;-60
2022/11/13 06:22:18;;;;;;;2.27;1.53;;;;;;;;;;5067486;27;87174;-60
2022/11/13 06:24:47;;;;;;;2.23;1.23;;;;;;;;;;5061985;27;88759;-60
2022/11/13 06:27:16;;;;;;;1.77;1.60;;;;;;;;;;5055081;27;88926;-60
2022/11/13 06:29:45;;;;;;;1.30;1.07;;;;;;;;;;5065027;27;87601;-60
2022/11/13 06:32:14;;;;;;;1.43;1.33;;;;;;;;;;5060705;27;86552;-60
2022/11/13 06:34:43;;;;;;;1.93;1.10;;;;;;;;;;5061301;27;88753;-60
2022/11/13 06:37:11;;;;;;;1.40;1.23;;;;;;;;;;5063687;27;88740;-60
2022/11/13 06:39:40;;;;;;;3.20;2.07;;;;;;;;;;5075306;27;88030;-60
2022/11/13 06:42:08;;;;;;;1.20;1.10;;;;;;;;;;5057766;27;87256;-60
2022/11/13 06:44:38;;;;;;;1.30;1.20;;;;;;;;;;5063515;27;88818;-60
2022/11/13 06:47:06;;;;;;;4.83;1.30;;;;;;;;;;5068430;27;87748;-60
2022/11/13 06:49:34;;;;;;;2.03;1.73;;;;;;;;;;5063703;27;87070;-60
2022/11/13 06:52:03;;;;;;;4.93;1.50;;;;;;;;;;5060932;27;87085;-63
2022/11/13 06:54:31;;;;;;;2.83;1.40;;;;;;;;;;5058057;27;87920;-60
2022/11/13 06:56:59;;;;;;;5.83;1.60;;;;;;;;;;5057316;27;88780;-60
2022/11/13 06:59:28;;;;;;;1.60;1.33;;;;;;;;;;5056619;27;87168;-61
2022/11/13 07:01:57;;;;;;;1.77;1.17;;;;;;;;;;5060362;27;87104;-61
2022/11/13 07:04:26;;;;;;;1.40;1.00;;;;;;;;;;5045767;27;89360;-61
2022/11/13 07:06:54;;;;;;;2.40;1.53;;;;;;;;;;5048737;27;88550;-61
2022/11/13 07:09:22;;;;;;;4.67;1.67;;;;;;;;;;5051601;27;87115;-61
2022/11/13 07:11:51;;;;;;;1.90;1.60;;;;;;;;;;5061948;27;86870;-61
2022/11/13 07:14:19;;;;;;;2.33;1.57;;;;;;;;;;5071724;27;88684;-61
2022/11/13 07:16:47;;;;;;;1.10;1.00;;;;;;;;;;5081315;27;87541;-61
2022/11/13 07:19:37;;;;;;;4.73;1.63;;;;;;;;;;5057818;27;87862;-61
2022/11/13 07:22:05;;;;;;;1.53;1.10;;;;;;;;;;5066125;27;86328;-61
2022/11/13 07:24:34;;;;;;;1.53;1.10;;;;;;;;;;5060397;27;91005;-61
2022/11/13 07:27:02;;;;;;;1.33;1.07;;;;;;;;;;5061761;27;88818;-61
2022/11/13 07:29:30;;;;;;;2.63;1.20;;;;;;;;;;5071320;27;88376;-61
2022/11/13 07:31:59;;;;;;;2.30;1.07;;;;;;;;;;5071396;27;87604;-61
2022/11/13 07:34:27;;;;;;;3.47;1.17;;;;;;;;;;5056775;27;88989;-62
2022/11/13 07:36:57;;;;;;;1.07;0.90;;;;;;;;;;5063769;27;88970;-62
2022/11/13 07:39:25;;;;;;;0.83;0.63;;;;;;;;;;5057432;27;87091;-61
2022/11/13 07:41:53;;;;;;;1.57;1.00;;;;;;;;;;5065582;27;88082;-62
2022/11/13 07:44:22;;;;;;;1.43;1.10;;;;;;;;;;5062624;27;89134;-62
2022/11/13 07:47:10;;;;;;;1.43;1.00;;;;;;;;;;5058701;27;89959;-61
2022/11/13 07:49:38;;;;;;;2.03;1.00;;;;;;;;;;5060748;27;86716;-62
2022/11/13 07:52:08;;;;;;;2.43;1.20;;;;;;;;;;5056238;27;87170;-62
2022/11/13 07:54:36;;;;;;;1.43;1.27;;;;;;;;;;5053061;27;88778;-61
2022/11/13 07:57:05;;;;;;;2.77;1.33;;;;;;;;;;5059005;27;89470;-62
2022/11/13 07:59:33;;;;;;;4.10;1.53;;;;;;;;;;5060750;27;88521;-62
2022/11/13 08:02:01;;;;;;;3.03;1.67;;;;;;;;;;5058477;27;87120;-61
2022/11/13 08:04:30;;;;;;;2.50;2.00;;;;;;;;;;5055765;27;89102;-61
2022/11/13 08:06:58;;;;;;;1.70;1.43;;;;;;;;;;5057416;27;87737;-61
2022/11/13 08:09:28;;;;;;;3.27;2.33;;;;;;;;;;5059403;27;86943;-61
2022/11/13 08:11:57;;;;;;;3.40;2.43;;;;;;;;;;5063824;27;86379;-66
2022/11/13 08:14:25;;;;;;;1.87;1.70;;;;;;;;;;5057161;27;88817;-68
2022/11/13 08:16:53;;;;;;;1.73;1.53;;;;;;;;;;5064636;27;87639;-67
2022/11/13 08:19:22;;;;;;;3.30;1.83;;;;;;;;;;5064558;27;88182;-68
2022/11/13 08:21:50;;;;;;;2.80;2.00;;;;;;;;;;5066279;27;87002;-67
2022/11/13 08:24:19;;;;;;;3.33;1.60;;;;;;;;;;5057487;27;87614;-67
2022/11/13 08:26:48;;;;;;;3.60;2.00;;;;;;;;;;5064109;27;88217;-65
2022/11/13 08:29:17;;;;;;;3.90;2.53;;;;;;;;;;5062328;27;87946;-65
2022/11/13 08:31:45;;;;;;;4.10;2.47;;;;;;;;;;5064001;27;87093;-63
2022/11/13 08:34:16;;;;;;;1.53;1.40;;;;;;;;;;5062948;27;88914;-64
2022/11/13 08:36:44;;;;;;;3.00;1.63;;;;;;;;;;5063210;27;87592;-63
2022/11/13 08:39:13;;;;;;;2.07;1.70;;;;;;;;;;5064692;27;87109;-64
2022/11/13 08:41:41;;;;;;;2.97;1.83;;;;;;;;;;5058466;27;86994;-63
2022/11/13 08:44:13;;;;;;;3.93;1.60;;;;;;;;;;5062171;27;89223;-61
2022/11/13 08:46:41;;;;;;;2.53;1.93;;;;;;;;;;5063218;27;89773;-61
2022/11/13 08:49:10;;;;;;;4.70;2.67;;;;;;;;;;5052734;27;87059;-61
2022/11/13 08:51:39;;;;;;;3.80;2.20;;;;;;;;;;5044153;27;87050;-62
2022/11/13 08:54:07;;;;;;;3.47;2.17;;;;;;;;;;5052747;27;88071;-61
2022/11/13 08:56:35;;;;;;;4.23;1.90;;;;;;;;;;5048839;27;88583;-61
2022/11/13 08:59:04;;;;;;;3.13;2.23;;;;;;;;;;5049069;27;87327;-62
2022/11/13 09:01:33;;;;;;;3.00;2.07;;;;;;;;;;5047430;27;86478;-61
2022/11/13 09:04:02;;;;;;;6.53;2.23;;;;;;;;;;5055500;27;88941;-62
2022/11/13 09:06:31;;;;;;;3.27;2.13;;;;;;;;;;5052591;27;88443;-61
2022/11/13 09:08:59;;;;;;;3.33;1.80;;;;;;;;;;5047069;27;87970;-61
2022/11/13 09:11:27;;;;;;;4.00;2.17;;;;;;;;;;5046824;27;87233;-61
2022/11/13 09:13:56;;;;;;;4.03;2.07;;;;;;;;;;5051922;27;89002;-61
2022/11/13 09:16:24;;;;;;;2.83;2.10;;;;;;;;;;5063643;27;91374;-61
2022/11/13 09:18:54;;;;;;;2.00;1.90;;;;;;;;;;5063572;27;87472;-61
2022/11/13 09:21:23;;;;;;;2.30;1.67;;;;;;;;;;5045962;27;87149;-61
2022/11/13 09:23:51;;;;;;;3.87;2.20;;;;;;;;;;5056095;27;89027;-61
2022/11/13 09:26:19;;;;;;;4.50;2.43;;;;;;;;;;5050866;27;88913;-62
2022/11/13 09:28:48;;;;;;;3.53;1.77;;;;;;;;;;5049772;27;87023;-61
2022/11/13 09:31:16;;;;;;;2.67;2.00;;;;;;;;;;5057777;27;87214;-61
2022/11/13 09:33:44;;;;;;;2.17;1.50;;;;;;;;;;5049595;27;90069;-61
2022/11/13 09:36:15;;;;;;;2.37;1.20;;;;;;;;;;5054953;27;88552;-61
2022/11/13 09:38:43;;;;;;;1.97;1.53;;;;;;;;;;5044130;27;87123;-61
2022/11/13 09:41:12;;;;;;;4.10;2.00;;;;;;;;;;5054475;27;86894;-61
2022/11/13 09:43:41;;;;;;;4.40;2.00;;;;;;;;;;5049388;27;89189;-61
2022/11/13 09:46:11;;;;;;;2.23;1.60;;;;;;;;;;5048972;27;88523;-61
2022/11/13 09:48:41;;;;;;;2.60;1.73;;;;;;;;;;5049269;27;87158;-61
2022/11/13 09:51:12;;;;;;;2.33;1.73;;;;;;;;;;5053120;27;86446;-61
2022/11/13 09:53:42;;;;;;;2.70;1.53;;;;;;;;;;5061430;27;88948;-61
2022/11/13 09:56:16;;;;;;;5.03;1.90;;;;;;;;;;5047131;27;87814;-61
2022/11/13 09:58:46;;;;;;;3.43;2.10;;;;;;;;;;5055559;27;88105;-61
2022/11/13 10:01:16;;;;;;;4.17;1.97;;;;;;;;;;5054655;27;86943;-61
2022/11/13 10:03:46;;;;;;;2.90;2.20;;;;;;;;;;5056975;27;88950;-61
2022/11/13 10:06:33;;;;;;;3.03;2.37;;;;;;;;;;5058418;27;88954;-61
2022/11/13 10:09:04;;;;;;;4.23;2.20;;;;;;;;;;5052629;27;87121;-61
2022/11/13 10:11:34;;;;;;;2.03;1.60;;;;;;;;;;5038236;28;87039;-61
2022/11/13 10:14:04;;;;;;;2.73;2.00;;;;;;;;;;5051951;27;88797;-61
2022/11/13 10:16:32;;;;;;;1.73;1.63;;;;;;;;;;5050355;27;88813;-61
2022/11/13 10:19:01;;;;;;;3.43;1.60;;;;;;;;;;5045834;27;87025;-61
2022/11/13 10:21:31;;;;;;;2.27;1.97;;;;;;;;;;5054212;27;87060;-61
2022/11/13 10:24:00;;;;;;;3.97;2.33;;;;;;;;;;5049934;27;88893;-61
2022/11/13 10:26:29;;;;;;;3.30;1.90;;;;;;;;;;5044474;27;89970;-61
2022/11/13 10:29:00;;;;;;;4.23;2.33;;;;;;;;;;5049929;27;87192;-61
2022/11/13 10:31:28;;;;;;;2.00;1.57;;;;;;;;;;5050803;27;87187;-61
2022/11/13 10:33:57;;;;;;;2.40;1.57;;;;;;;;;;5058381;27;88043;-61
2022/11/13 10:36:28;;;;;;;2.40;1.70;;;;;;;;;;5054100;27;88555;-61
2022/11/13 10:39:02;;;;;;;4.47;2.47;;;;;;;;;;5052414;27;87396;-61
2022/11/13 10:41:32;;;;;;;7.33;2.33;;;;;;;;;;5046063;27;86310;-61
2022/11/13 10:44:05;;;;;;;4.33;2.33;;;;;;;;;;5051451;27;87990;-61
2022/11/13 10:46:34;;;;;;;3.27;2.50;;;;;;;;;;5047998;27;88800;-61
2022/11/13 10:49:11;;;;;;;2.70;1.90;;;;;;;;;;5051873;27;88098;-61
2022/11/13 10:51:39;;;;;;;2.03;1.70;;;;;;;;;;5048951;27;86909;-61
2022/11/13 10:54:21;;;;;;;4.40;2.07;;;;;;;;;;5045694;27;89005;-61
2022/11/13 10:56:58;;;;;;;4.67;2.67;;;;;;;;;;5053751;27;87774;-61
2022/11/13 10:59:26;;;;;;;2.83;2.30;;;;;;;;;;5038063;27;88694;-61
2022/11/13 11:01:54;;;;;;;3.60;2.23;;;;;;;;;;5052883;27;86947;-61
2022/11/13 11:04:26;;;;;;;3.40;2.10;;;;;;;;;;5051527;27;88029;-61
2022/11/13 11:06:54;;;;;;;2.37;2.17;;;;;;;;;;5049733;27;88127;-61
2022/11/13 11:09:43;;;;;;;3.30;2.20;;;;;;;;;;5046172;27;87100;-61
2022/11/13 11:12:15;;;;;;;4.07;2.50;;;;;;;;;;5046822;27;87614;-61
2022/11/13 11:14:46;;;;;;;5.00;2.50;;;;;;;;;;5049113;27;89065;-60
2022/11/13 11:17:15;;;;;;;3.17;2.00;;;;;;;;;;5045735;27;87460;-62
2022/11/13 11:19:52;;;;;;;3.03;2.07;;;;;;;;;;5050480;27;87644;-61
2022/11/13 11:22:22;;;;;;;3.63;2.37;;;;;;;;;;5059412;27;87039;-60
2022/11/13 11:24:52;;;;;;;2.47;1.60;;;;;;;;;;5059195;27;87730;-61
2022/11/13 11:27:22;;;;;;;2.40;1.70;;;;;;;;;;5046774;27;89119;-61
2022/11/13 11:29:51;;;;;;;3.63;2.10;;;;;;;;;;5044653;27;86790;-61
2022/11/13 11:32:21;;;;;;;2.20;2.00;;;;;;;;;;5050036;27;86828;-61
2022/11/13 11:34:51;;;;;;;4.63;1.87;;;;;;;;;;5040624;27;88187;-61
2022/11/13 11:37:27;;;;;;;3.50;2.03;;;;;;;;;;5048475;27;87827;-61
2022/11/13 11:39:58;;;;;;;3.70;2.10;;;;;;;;;;5045096;27;88114;-61
2022/11/13 11:42:29;;;;;;;6.97;2.80;;;;;;;;;;5049674;27;87135;-60
2022/11/13 11:45:01;;;;;;;4.43;2.87;;;;;;;;;;5050518;27;88383;-60
2022/11/13 11:47:29;;;;;;;5.57;3.03;;;;;;;;;;5050695;27;88698;-61
2022/11/13 11:49:57;;;;;;;12.37;3.63;;;;;;;;;;5047829;27;87265;-60
2022/11/13 11:52:30;;;;;;;6.87;3.33;;;;;;;;;;5050914;27;87002;-60
2022/11/13 11:55:01;;;;;;;11.00;3.30;;;;;;;;;;5050728;27;87908;-60
2022/11/13 11:57:37;;;;;;;9.57;3.60;;;;;;;;;;5053340;27;88975;-60
2022/11/13 12:00:06;;;;;;;7.63;4.17;;;;;;;;;;5047492;27;87003;-60
2022/11/13 12:02:47;;;;;;;7.23;3.73;;;;;;;;;;5047000;27;87227;-60
2022/11/13 12:05:22;;;;;;;6.60;4.30;;;;;;;;;;5048396;27;90591;-62
2022/11/13 12:07:54;;;;;;;13.37;4.43;;;;;;;;;;5050478;27;91206;-60
2022/11/13 12:10:25;;;;;;;12.43;4.30;;;;;;;;;;5048213;27;86898;-61
2022/11/13 12:13:04;;;;;;;9.90;3.57;;;;;;;;;;5045776;27;87099;-62
2022/11/13 12:15:35;;;;;;;9.30;4.50;;;;;;;;;;5043598;28;88840;-62
2022/11/13 12:18:05;;;;;;;13.47;5.03;;;;;;;;;;5048312;27;89077;-61
2022/11/13 12:20:36;;;;;;;19.30;7.77;;;;;;;;;;5051111;27;88164;-60
2022/11/13 12:23:07;;;;;;;16.83;7.20;;;;;;;;;;5053706;27;86216;-61
2022/11/13 12:25:36;;;;;;;19.40;8.57;;;;;;;;;;5047383;27;91196;-61
2022/11/13 12:28:10;;;;;;;20.43;10.07;;;;;;;;;;5051133;27;87637;-60
2022/11/13 12:30:40;;;;;;;29.40;10.57;;;;;;;;;;5052449;27;88120;-61
2022/11/13 12:33:18;;;;;;;21.63;9.60;;;;;;;;;;5049260;27;87030;-60
2022/11/13 12:35:46;;;;;;;37.57;12.77;;;;;;;;;;5048557;27;89177;-60
2022/11/13 12:38:18;;;;;;;30.73;12.23;;;;;;;;;;5054044;27;88997;-61
2022/11/13 12:40:48;;;;;;;26.47;12.57;;;;;;;;;;5052067;27;87033;-60
2022/11/13 12:43:28;;;;;;;24.00;12.07;;;;;;;;;;5045534;27;87039;-60
2022/11/13 12:45:57;;;;;;;45.93;18.00;;;;;;;;;;5053490;27;87864;-60
2022/11/13 12:48:32;;;;;;;31.97;15.10;;;;;;;;;;5051865;27;87719;-60
2022/11/13 12:51:01;;;;;;;30.97;13.73;;;;;;;;;;5045492;27;86987;-60
2022/11/13 12:53:30;;;;;;;27.93;15.07;;;;;;;;;;5045126;27;87028;-61
2022/11/13 12:55:59;;;;;;;23.50;10.23;;;;;;;;;;5042234;27;88965;-60
2022/11/13 12:58:29;;;;;;;26.13;10.40;;;;;;;;;;5027344;28;88961;-60
2022/11/13 13:00:59;;;;;;;22.87;10.43;;;;;;;;;;5030050;28;87166;-60
2022/11/13 13:03:46;;;;;;;16.93;10.10;;;;;;;;;;5032302;28;87583;-60
2022/11/13 13:06:21;;;;;;;29.03;9.30;;;;;;;;;;5029588;28;88096;-60
2022/11/13 13:08:54;;;;;;;19.43;10.97;;;;;;;;;;5033017;28;88986;-60
2022/11/13 13:11:24;;;;;;;17.67;11.10;;;;;;;;;;5032211;28;87099;-60
2022/11/13 13:13:55;;;;;;;23.10;11.33;;;;;;;;;;5031432;28;86894;-60
2022/11/13 13:16:24;;;;;;;23.53;11.33;;;;;;;;;;5029973;28;88933;-60
2022/11/13 13:18:53;;;;;;;16.10;8.30;;;;;;;;;;5030635;28;87147;-60
2022/11/13 13:21:21;;;;;;;17.17;7.93;;;;;;;;;;5032314;28;87967;-60
2022/11/13 13:23:50;;;;;;;11.37;6.30;;;;;;;;;;5029164;28;86911;-60
2022/11/13 13:26:20;;;;;;;13.10;7.03;;;;;;;;;;5032480;28;87980;-60
2022/11/13 13:28:50;;;;;;;21.87;6.20;;;;;;;;;;5032783;28;87879;-61
2022/11/13 13:31:23;;;;;;;11.03;6.40;;;;;;;;;;5032701;28;87048;-60
2022/11/13 13:33:53;;;;;;;12.40;6.10;;;;;;;;;;5033582;28;87055;-60
2022/11/13 13:36:25;;;;;;;8.30;6.03;;;;;;;;;;5033104;28;88049;-60
2022/11/13 13:38:54;;;;;;;9.30;4.60;;;;;;;;;;5029909;28;88080;-60
2022/11/13 13:41:26;;;;;;;7.83;4.17;;;;;;;;;;5031460;28;87235;-60
2022/11/13 13:43:57;;;;;;;6.27;3.83;;;;;;;;;;5031752;28;87131;-60
2022/11/13 13:46:27;;;;;;;6.73;4.37;;;;;;;;;;5029656;28;89806;-60
2022/11/13 13:48:56;;;;;;;7.30;2.93;;;;;;;;;;5029287;28;88809;-60
2022/11/13 13:51:27;;;;;;;10.07;3.00;;;;;;;;;;5031018;28;87225;-60
2022/11/13 13:53:55;;;;;;;6.00;3.77;;;;;;;;;;5032244;28;87034;-59
2022/11/13 13:56:24;;;;;;;9.13;3.53;;;;;;;;;;5032010;27;89252;-60
2022/11/13 13:58:52;;;;;;;3.90;3.50;;;;;;;;;;5051281;27;87401;-61
2022/11/13 14:01:29;;;;;;;5.17;2.80;;;;;;;;;;5053434;27;87127;-60
2022/11/13 14:04:05;;;;;;;3.80;2.40;;;;;;;;;;5057143;27;86467;-61
2022/11/13 14:06:33;;;;;;;3.40;2.20;;;;;;;;;;5047682;27;88052;-61
2022/11/13 14:09:08;;;;;;;2.10;1.80;;;;;;;;;;5042552;27;88365;-61
2022/11/13 14:11:36;;;;;;;3.23;1.80;;;;;;;;;;5062635;27;87984;-61
2022/11/13 14:14:08;;;;;;;2.20;1.97;;;;;;;;;;5062794;27;87028;-61
2022/11/13 14:16:48;;;;;;;2.83;2.20;;;;;;;;;;5061930;27;88429;-61
2022/11/13 14:19:16;;;;;;;5.47;2.57;;;;;;;;;;5044890;27;88804;-61
2022/11/13 14:21:45;;;;;;;3.03;2.20;;;;;;;;;;5048384;27;87012;-61
2022/11/13 14:24:16;;;;;;;3.00;1.97;;;;;;;;;;5048589;27;87036;-62
2022/11/13 14:26:45;;;;;;;3.60;2.17;;;;;;;;;;5061992;27;91042;-61
2022/11/13 14:29:20;;;;;;;2.40;1.80;;;;;;;;;;5063032;27;88764;-61
2022/11/13 14:31:50;;;;;;;4.77;2.57;;;;;;;;;;5063199;27;87007;-60
2022/11/13 14:34:19;;;;;;;3.60;1.90;;;;;;;;;;5058044;27;87653;-60
2022/11/13 14:36:47;;;;;;;3.33;2.00;;;;;;;;;;5062008;27;89781;-61
2022/11/13 14:39:20;;;;;;;2.93;2.20;;;;;;;;;;5061431;27;89588;-61
2022/11/13 14:41:49;;;;;;;2.37;2.00;;;;;;;;;;5063568;27;87053;-61
2022/11/13 14:44:25;;;;;;;2.83;1.63;;;;;;;;;;5078958;27;87068;-61
2022/11/13 14:47:01;;;;;;;2.93;2.23;;;;;;;;;;5054624;27;91935;-61
2022/11/13 14:49:30;;;;;;;2.13;1.80;;;;;;;;;;5063222;27;88306;-61
2022/11/13 14:51:59;;;;;;;2.43;1.77;;;;;;;;;;5063345;27;87125;-60
2022/11/13 14:54:31;;;;;;;1.50;1.30;;;;;;;;;;5065369;27;86257;-60